KFRH/FRH METAR and TAF weather

Enter ICAO airport designator
Station Type Date Time Source
KFRH METAR 2020/01/20 10:15 UTC NOAA

KFRH 201015Z AUTO 00000KT 3SM SCT013 SCT020 OVC034 M10/M12 A3050 RMK AO1


Station Type Date Time Source
KFRH Decoded METAR 2020/01/20 10:15 UTC NOAA

Station name not available
Jan 20, 2020 - 05:15 AM EST / 2020.01.20 1015 UTC
Wind: Calm:0
Visibility: 3 mile(s):0
Sky conditions: overcast
Temperature: 14 F (-10 C)
Dew Point: 10 F (-12 C)
Relative Humidity: 85%
Pressure (altimeter): 30.5 in. Hg (1032 hPa)
ob: KFRH 201015Z AUTO 00000KT 3SM SCT013 SCT020 OVC034 M10/M12 A3050 RMK AO1
cycle: 10

Station Type Date Time Source
KFRH TAF UTC NOAA

Error!

Example: see airport list